createdAt,value
2023-02-28T00:01:38.274Z,98279.19
2023-02-28T00:04:05.791Z,98279.44
2023-02-28T00:06:33.317Z,98271.69
2023-02-28T00:09:00.857Z,98275.16
2023-02-28T00:11:28.691Z,98280.41
2023-02-28T00:13:56.412Z,98275.31
2023-02-28T00:16:24.070Z,98278.91
2023-02-28T00:18:51.961Z,98270.19
2023-02-28T00:21:20.731Z,98265.84
2023-02-28T00:23:49.439Z,98272.16
2023-02-28T00:26:17.278Z,98270.56
2023-02-28T00:28:46.767Z,98267.84
2023-02-28T00:31:14.925Z,98273.94
2023-02-28T00:33:42.731Z,98267.84
2023-02-28T00:36:12.508Z,98270.47
2023-02-28T00:38:41.402Z,98266.91
2023-02-28T00:41:09.528Z,98262.66
2023-02-28T00:43:39.959Z,98263.53
2023-02-28T00:46:08.439Z,98260.25
2023-02-28T00:48:36.632Z,98269.06
2023-02-28T00:51:05.069Z,98272.75
2023-02-28T00:53:33.671Z,98269.44
2023-02-28T00:56:01.658Z,98264.28
2023-02-28T00:58:29.605Z,98265.25
2023-02-28T01:00:57.309Z,98259.16
2023-02-28T01:03:25.238Z,98253.88
2023-02-28T01:05:54.191Z,98259.16
2023-02-28T01:08:22.327Z,98267.22
2023-02-28T01:10:51.692Z,98262.03
2023-02-28T01:13:20.632Z,98260.47
2023-02-28T01:15:53.170Z,98255.47
2023-02-28T01:18:22.260Z,98259.88
2023-02-28T01:20:50.319Z,98256.50
2023-02-28T01:23:17.950Z,98259.97
2023-02-28T01:25:45.577Z,98263.66
2023-02-28T01:28:13.141Z,98253.13
2023-02-28T01:30:40.673Z,98253.88
2023-02-28T01:33:08.247Z,98260.09
2023-02-28T01:35:36.830Z,98256.72
2023-02-28T01:38:20.558Z,98258.41
2023-02-28T01:40:48.910Z,98259.34
2023-02-28T01:43:27.350Z,98260.34
2023-02-28T01:45:58.595Z,98258.56
2023-02-28T01:48:33.221Z,98259.53
2023-02-28T01:51:11.508Z,98257.94
2023-02-28T01:53:48.496Z,98255.50
2023-02-28T01:56:23.664Z,98248.44
2023-02-28T01:58:53.901Z,98252.78
2023-02-28T02:01:23.515Z,98258.88
2023-02-28T02:04:02.339Z,98248.53
2023-02-28T02:06:38.115Z,98249.50
2023-02-28T02:09:09.018Z,98243.28
2023-02-28T02:11:37.462Z,98244.97
2023-02-28T02:14:46.183Z,98238.31
2023-02-28T02:17:36.835Z,98231.28
2023-02-28T02:20:55.746Z,98231.56
2023-02-28T02:23:41.787Z,98233.28
2023-02-28T02:26:42.017Z,98226.59
2023-02-28T02:29:56.721Z,98227.53
2023-02-28T02:33:06.792Z,98230.25
2023-02-28T02:36:05.063Z,98230.72
2023-02-28T02:39:00.374Z,98222.84
2023-02-28T02:41:42.805Z,98223.59
2023-02-28T02:44:15.320Z,98224.25
2023-02-28T02:46:46.035Z,98226.00
2023-02-28T02:49:26.070Z,98223.50
2023-02-28T02:51:56.920Z,98229.13
2023-02-28T02:54:33.320Z,98227.34
2023-02-28T02:57:09.451Z,98223.88
2023-02-28T02:59:39.988Z,98228.75
2023-02-28T03:02:13.198Z,98221.69
2023-02-28T03:04:49.725Z,98224.41
2023-02-28T03:07:17.314Z,98221.69
2023-02-28T03:09:59.097Z,98222.81
2023-02-28T03:12:55.277Z,98229.88
2023-02-28T03:16:00.474Z,98233.06
2023-02-28T03:18:51.182Z,98230.81
2023-02-28T03:22:18.743Z,98227.50
2023-02-28T03:25:37.486Z,98222.03
2023-02-28T03:28:31.003Z,98231.16
2023-02-28T03:31:20.286Z,98225.91
2023-02-28T03:34:28.585Z,98228.81
2023-02-28T03:37:02.946Z,98231.50
2023-02-28T03:39:40.832Z,98221.84
2023-02-28T03:42:15.472Z,98220.81
2023-02-28T03:44:51.048Z,98222.38
2023-02-28T03:47:45.728Z,98226.16
2023-02-28T03:50:21.021Z,98221.94
2023-02-28T03:53:02.292Z,98224.63
2023-02-28T03:55:39.537Z,98218.34
2023-02-28T03:58:27.952Z,98222.00
2023-02-28T04:01:12.204Z,98219.59
2023-02-28T04:03:40.613Z,98220.84
2023-02-28T04:06:18.887Z,98224.34
2023-02-28T04:08:47.247Z,98228.56
2023-02-28T04:11:43.694Z,98224.63
2023-02-28T04:14:12.547Z,98232.25
2023-02-28T04:16:42.618Z,98231.09
2023-02-28T04:19:13.043Z,98233.50
2023-02-28T04:21:47.065Z,98235.22
2023-02-28T04:24:27.564Z,98234.16
2023-02-28T04:26:57.657Z,98230.28
2023-02-28T04:29:28.213Z,98238.94
2023-02-28T04:32:00.347Z,98234.31
2023-02-28T04:34:30.703Z,98234.22
2023-02-28T04:37:12.332Z,98235.63
2023-02-28T04:39:41.921Z,98228.56
2023-02-28T04:42:10.205Z,98230.03
2023-02-28T04:44:37.718Z,98224.50
2023-02-28T04:47:05.591Z,98225.34
2023-02-28T04:49:33.209Z,98227.13
2023-02-28T04:52:00.712Z,98221.88
2023-02-28T04:54:29.223Z,98222.81
2023-02-28T04:56:57.005Z,98224.38
2023-02-28T04:59:24.532Z,98227.00
2023-02-28T05:01:52.079Z,98225.63
2023-02-28T05:04:19.690Z,98229.13
2023-02-28T05:06:47.205Z,98236.69
2023-02-28T05:09:14.775Z,98229.34
2023-02-28T05:11:42.732Z,98239.66
2023-02-28T05:14:14.806Z,98242.00
2023-02-28T05:16:42.372Z,98236.44
2023-02-28T05:19:10.331Z,98236.34
2023-02-28T05:21:41.801Z,98230.03
2023-02-28T05:24:13.143Z,98242.25
2023-02-28T05:26:43.997Z,98236.97
2023-02-28T05:29:11.667Z,98239.41
2023-02-28T05:31:39.450Z,98229.91
2023-02-28T05:34:07.181Z,98246.47
2023-02-28T05:36:34.915Z,98240.25
2023-02-28T05:39:02.599Z,98243.00
2023-02-28T05:41:31.299Z,98241.19
2023-02-28T05:44:00.693Z,98245.53
2023-02-28T05:46:28.270Z,98237.50
2023-02-28T05:48:56.864Z,98238.38
2023-02-28T05:51:24.448Z,98242.66
2023-02-28T05:53:52.039Z,98250.28
2023-02-28T05:56:19.565Z,98239.63
2023-02-28T05:58:47.225Z,98237.72
2023-02-28T06:01:42.831Z,98243.50
2023-02-28T06:04:22.359Z,98244.88
2023-02-28T06:06:58.405Z,98245.75
2023-02-28T06:09:26.033Z,98247.53
2023-02-28T06:11:53.558Z,98245.00
2023-02-28T06:14:21.906Z,98248.25
2023-02-28T06:16:49.680Z,98255.22
2023-02-28T06:19:17.332Z,98251.63
2023-02-28T06:21:45.308Z,98257.63
2023-02-28T06:24:12.951Z,98250.59
2023-02-28T06:26:40.452Z,98249.75
2023-02-28T06:29:08.428Z,98257.53
2023-02-28T06:31:36.186Z,98254.81
2023-02-28T06:34:03.965Z,98256.72
2023-02-28T06:36:31.837Z,98262.72
2023-02-28T06:38:59.420Z,98270.41
2023-02-28T06:41:28.599Z,98263.34
2023-02-28T06:43:56.832Z,98269.47
2023-02-28T06:46:24.993Z,98280.09
2023-02-28T06:48:52.765Z,98272.19
2023-02-28T06:51:23.131Z,98282.44
2023-02-28T06:53:51.612Z,98279.81
2023-02-28T06:56:21.271Z,98282.44
2023-02-28T06:58:51.138Z,98288.34
2023-02-28T07:01:20.240Z,98281.28
2023-02-28T07:03:53.007Z,98283.91
2023-02-28T07:06:24.748Z,98286.53
2023-02-28T07:08:53.989Z,98289.19
2023-02-28T07:11:23.921Z,98293.38
2023-02-28T07:13:51.941Z,98295.00
2023-02-28T07:16:19.811Z,98296.66
2023-02-28T07:18:47.535Z,98296.47
2023-02-28T07:21:15.696Z,98294.47
2023-02-28T07:23:43.325Z,98299.09
2023-02-28T07:26:16.326Z,98291.94
2023-02-28T07:28:45.886Z,98300.38
2023-02-28T07:31:18.082Z,98301.22
2023-02-28T07:33:45.753Z,98294.91
2023-02-28T07:36:18.025Z,98296.38
2023-02-28T07:38:50.850Z,98304.91
2023-02-28T07:41:23.135Z,98295.31
2023-02-28T07:43:50.859Z,98299.66
2023-02-28T07:46:22.177Z,98305.56
2023-02-28T07:48:49.830Z,98309.78
2023-02-28T07:51:17.339Z,98303.66
2023-02-28T07:53:45.106Z,98295.66
2023-02-28T07:56:12.726Z,98303.75
2023-02-28T07:58:40.246Z,98301.88
2023-02-28T08:01:10.866Z,98301.44
2023-02-28T08:03:39.828Z,98310.94
2023-02-28T08:06:15.723Z,98308.31
2023-02-28T08:08:43.282Z,98309.78
2023-02-28T08:11:10.790Z,98305.25
2023-02-28T08:13:38.305Z,98306.72
2023-02-28T08:16:06.154Z,98311.16
2023-02-28T08:18:34.452Z,98312.63
2023-02-28T08:21:08.799Z,98318.53
2023-02-28T08:23:36.627Z,98312.09
2023-02-28T08:26:05.157Z,98313.88
2023-02-28T08:28:32.967Z,98324.31
2023-02-28T08:31:00.666Z,98320.03
2023-02-28T08:33:29.098Z,98321.78
2023-02-28T08:35:57.521Z,98312.84
2023-02-28T08:38:25.268Z,98322.56
2023-02-28T08:41:04.258Z,98326.22
2023-02-28T08:43:32.427Z,98321.50
2023-02-28T08:46:00.292Z,98322.00
2023-02-28T08:48:30.780Z,98322.63
2023-02-28T08:51:07.218Z,98329.59
2023-02-28T08:53:39.357Z,98328.53
2023-02-28T08:56:17.664Z,98328.25
2023-02-28T08:58:47.008Z,98334.34
2023-02-28T09:01:18.809Z,98333.63
2023-02-28T09:03:49.183Z,98328.13
2023-02-28T09:06:19.610Z,98333.09
2023-02-28T09:08:47.483Z,98325.56
2023-02-28T09:11:15.220Z,98337.72
2023-02-28T09:13:43.029Z,98331.03
2023-02-28T09:16:14.926Z,98328.84
2023-02-28T09:18:42.995Z,98325.75
2023-02-28T09:21:15.124Z,98322.66
2023-02-28T09:23:44.518Z,98330.38
2023-02-28T09:26:32.326Z,98324.97
2023-02-28T09:29:07.600Z,98332.97
2023-02-28T09:31:35.111Z,98336.22
2023-02-28T09:34:02.894Z,98340.34
2023-02-28T09:36:43.231Z,98333.03
2023-02-28T09:39:15.388Z,98331.84
2023-02-28T09:41:50.968Z,98336.06
2023-02-28T09:44:33.087Z,98344.50
2023-02-28T09:47:15.532Z,98345.25
2023-02-28T09:49:47.839Z,98342.88
2023-02-28T09:52:20.542Z,98342.44
2023-02-28T09:54:48.357Z,98340.41
2023-02-28T09:57:42.697Z,98344.84
2023-02-28T10:00:23.531Z,98341.75
2023-02-28T10:03:24.569Z,98348.75
2023-02-28T10:06:29.729Z,98346.38
2023-02-28T10:09:14.414Z,98341.81
2023-02-28T10:11:43.752Z,98346.16
2023-02-28T10:14:21.350Z,98348.06
2023-02-28T10:17:02.876Z,98339.16
2023-02-28T10:19:41.313Z,98351.91
2023-02-28T10:22:51.304Z,98352.66
2023-02-28T10:25:30.358Z,98353.16
2023-02-28T10:28:08.402Z,98360.97
2023-02-28T10:30:39.908Z,98366.00
2023-02-28T10:33:19.257Z,98370.16
2023-02-28T10:35:47.017Z,98368.00
2023-02-28T10:38:23.813Z,98369.34
2023-02-28T10:40:52.602Z,98374.41
2023-02-28T10:43:23.759Z,98371.16
2023-02-28T10:46:11.591Z,98361.06
2023-02-28T10:48:50.838Z,98361.09
2023-02-28T10:51:23.228Z,98360.78
2023-02-28T10:54:01.639Z,98361.13
2023-02-28T10:56:31.568Z,98356.56
2023-02-28T10:59:28.985Z,98368.22
2023-02-28T11:01:57.343Z,98357.78
2023-02-28T11:04:33.204Z,98353.94
2023-02-28T11:07:17.677Z,98347.22
2023-02-28T11:09:54.800Z,98351.78
2023-02-28T11:12:43.344Z,98344.13
2023-02-28T11:15:30.409Z,98347.00
2023-02-28T11:18:36.355Z,98347.00
2023-02-28T11:21:04.689Z,98338.34
2023-02-28T11:23:38.046Z,98337.59
2023-02-28T11:26:10.458Z,98329.31
2023-02-28T11:28:42.979Z,98333.00
2023-02-28T11:31:14.720Z,98335.19
2023-02-28T11:33:51.701Z,98330.22
2023-02-28T11:36:28.734Z,98336.84
2023-02-28T11:39:03.707Z,98338.50
2023-02-28T11:42:18.923Z,98337.44
2023-02-28T11:45:23.669Z,98331.41
2023-02-28T11:48:10.683Z,98334.97
2023-02-28T11:51:21.847Z,98327.63
2023-02-28T11:54:21.869Z,98325.78
2023-02-28T11:56:56.888Z,98321.97
2023-02-28T11:59:39.280Z,98330.84
2023-02-28T12:02:45.141Z,98326.63
2023-02-28T12:05:37.884Z,98324.81
2023-02-28T12:08:32.813Z,98326.50
2023-02-28T12:11:31.619Z,98321.66
2023-02-28T12:14:30.585Z,98322.81
2023-02-28T12:17:49.039Z,98323.53
2023-02-28T12:20:49.024Z,98313.97
2023-02-28T12:24:00.735Z,98315.50
2023-02-28T12:26:47.439Z,98317.00
2023-02-28T12:29:37.472Z,98307.16
2023-02-28T12:32:16.242Z,98308.59
2023-02-28T12:34:52.991Z,98310.88
2023-02-28T12:37:32.589Z,98303.03
2023-02-28T12:40:23.284Z,98296.84
2023-02-28T12:42:57.505Z,98295.53
2023-02-28T12:46:03.521Z,98297.78
2023-02-28T12:48:47.147Z,98285.81
2023-02-28T12:51:18.102Z,98282.28
2023-02-28T12:53:59.661Z,98284.16
2023-02-28T12:57:14.260Z,98284.41
2023-02-28T12:59:56.892Z,98275.38
2023-02-28T13:02:39.574Z,98279.72
2023-02-28T13:05:23.753Z,98279.56
2023-02-28T13:08:39.061Z,98274.63
2023-02-28T13:11:20.974Z,98276.25
2023-02-28T13:13:48.956Z,98276.69
2023-02-28T13:16:16.633Z,98279.94
2023-02-28T13:18:47.589Z,98279.56
2023-02-28T13:21:29.742Z,98281.97
2023-02-28T13:24:02.157Z,98272.44
2023-02-28T13:26:38.220Z,98277.59
2023-02-28T13:29:31.119Z,98276.91
2023-02-28T13:32:06.661Z,98285.91
2023-02-28T13:34:35.704Z,98276.53
2023-02-28T13:37:24.066Z,98271.66
2023-02-28T13:39:56.096Z,98268.16
2023-02-28T13:42:43.082Z,98276.16
2023-02-28T13:45:13.650Z,98274.25
2023-02-28T13:47:53.517Z,98265.59
2023-02-28T13:50:26.882Z,98267.84
2023-02-28T13:53:28.598Z,98272.03
2023-02-28T13:56:20.370Z,98275.97
2023-02-28T13:59:06.409Z,98273.31
2023-02-28T14:01:54.494Z,98265.94
2023-02-28T14:05:01.908Z,98273.50
2023-02-28T14:07:54.076Z,98275.91
2023-02-28T14:10:28.102Z,98273.38
2023-02-28T14:12:59.983Z,98280.25
2023-02-28T14:16:00.896Z,98275.09
2023-02-28T14:18:42.485Z,98275.34
2023-02-28T14:21:17.317Z,98267.38
2023-02-28T14:24:45.574Z,98275.91
2023-02-28T14:27:35.786Z,98273.41
2023-02-28T14:30:42.360Z,98272.69
2023-02-28T14:33:40.323Z,98271.97
2023-02-28T14:36:14.566Z,98264.84
2023-02-28T14:38:54.112Z,98258.56
2023-02-28T14:41:32.183Z,98265.53
2023-02-28T14:44:02.389Z,98269.19
2023-02-28T14:46:41.358Z,98263.56
2023-02-28T14:49:22.320Z,98265.00
2023-02-28T14:52:02.520Z,98270.72
2023-02-28T14:54:30.460Z,98259.81
2023-02-28T14:56:57.949Z,98274.91
2023-02-28T14:59:33.869Z,98274.53
2023-02-28T15:02:24.737Z,98275.66
2023-02-28T15:05:02.889Z,98279.84
2023-02-28T15:07:30.622Z,98275.91
2023-02-28T15:10:28.764Z,98281.22
2023-02-28T15:13:16.690Z,98283.19
2023-02-28T15:16:05.594Z,98284.16
2023-02-28T15:18:57.327Z,98284.31
2023-02-28T15:21:38.752Z,98285.56
2023-02-28T15:24:37.530Z,98283.75
2023-02-28T15:27:14.890Z,98283.06
2023-02-28T15:29:52.838Z,98281.50
2023-02-28T15:32:37.208Z,98285.03
2023-02-28T15:35:23.636Z,98283.47
2023-02-28T15:38:15.215Z,98287.38
2023-02-28T15:40:54.560Z,98281.38
2023-02-28T15:43:28.893Z,98284.28
2023-02-28T15:46:10.741Z,98273.97
2023-02-28T15:48:57.562Z,98275.22
2023-02-28T15:51:43.309Z,98277.88
2023-02-28T15:54:25.381Z,98274.22
2023-02-28T15:56:57.337Z,98280.22
2023-02-28T15:59:29.546Z,98279.28
2023-02-28T16:02:21.856Z,98275.75
2023-02-28T16:05:08.529Z,98278.25
2023-02-28T16:07:39.838Z,98273.34
2023-02-28T16:10:11.927Z,98279.59
2023-02-28T16:12:40.820Z,98278.06
2023-02-28T16:15:31.861Z,98277.25
2023-02-28T16:17:59.446Z,98280.03
2023-02-28T16:20:30.363Z,98284.91
2023-02-28T16:23:02.090Z,98281.50
2023-02-28T16:25:42.903Z,98286.09
2023-02-28T16:28:33.420Z,98289.81
2023-02-28T16:31:03.551Z,98293.00
2023-02-28T16:33:32.520Z,98293.00
2023-02-28T16:36:01.221Z,98296.75
2023-02-28T16:38:28.704Z,98305.94
2023-02-28T16:41:00.017Z,98302.00
2023-02-28T16:43:28.607Z,98308.50
2023-02-28T16:46:01.256Z,98305.16
2023-02-28T16:48:28.937Z,98305.56
2023-02-28T16:50:56.431Z,98314.75
2023-02-28T16:53:23.935Z,98310.09
2023-02-28T16:55:51.904Z,98323.03
2023-02-28T16:58:22.294Z,98325.25
2023-02-28T17:00:50.996Z,98326.00
2023-02-28T17:03:33.180Z,98329.66
2023-02-28T17:06:02.018Z,98330.31
2023-02-28T17:08:30.744Z,98326.38
2023-02-28T17:10:58.765Z,98325.28
2023-02-28T17:13:26.314Z,98331.69
2023-02-28T17:15:54.031Z,98329.78
2023-02-28T17:18:24.931Z,98341.72
2023-02-28T17:20:52.420Z,98342.22
2023-02-28T17:23:19.929Z,98344.28
2023-02-28T17:25:56.255Z,98338.28
2023-02-28T17:28:24.837Z,98347.31
2023-02-28T17:30:52.376Z,98351.28
2023-02-28T17:33:20.113Z,98348.28
2023-02-28T17:35:47.692Z,98353.25
2023-02-28T17:38:20.341Z,98353.34
2023-02-28T17:40:47.938Z,98361.69
2023-02-28T17:43:15.878Z,98353.34
2023-02-28T17:45:43.504Z,98357.09
2023-02-28T17:48:12.612Z,98361.78
2023-02-28T17:50:40.184Z,98370.00
2023-02-28T17:53:07.898Z,98359.25
2023-02-28T17:55:36.070Z,98369.25
2023-02-28T17:58:04.593Z,98374.28
2023-02-28T18:00:35.285Z,98369.47
2023-02-28T18:03:02.842Z,98375.25
2023-02-28T18:05:31.597Z,98372.09
2023-02-28T18:07:59.347Z,98370.66
2023-02-28T18:10:28.243Z,98366.56
2023-02-28T18:12:55.776Z,98368.59
2023-02-28T18:15:23.484Z,98374.03
2023-02-28T18:17:51.281Z,98364.75
2023-02-28T18:20:19.718Z,98366.66
2023-02-28T18:22:47.473Z,98365.91
2023-02-28T18:25:16.893Z,98371.47
2023-02-28T18:27:54.071Z,98370.84
2023-02-28T18:30:22.815Z,98369.41
2023-02-28T18:32:50.322Z,98360.13
2023-02-28T18:35:34.509Z,98372.72
2023-02-28T18:38:19.304Z,98368.72
2023-02-28T18:41:07.307Z,98364.03
2023-02-28T18:43:38.366Z,98368.47
2023-02-28T18:46:14.485Z,98371.53
2023-02-28T18:48:42.325Z,98375.03
2023-02-28T18:51:15.798Z,98372.72
2023-02-28T18:53:44.462Z,98374.50
2023-02-28T18:56:14.876Z,98376.09
2023-02-28T18:58:42.958Z,98367.56
2023-02-28T19:01:21.428Z,98367.91
2023-02-28T19:03:50.828Z,98369.56
2023-02-28T19:06:19.081Z,98364.66
2023-02-28T19:08:47.333Z,98366.56
2023-02-28T19:11:19.295Z,98375.78
2023-02-28T19:13:47.541Z,98363.63
2023-02-28T19:16:19.161Z,98372.50
2023-02-28T19:18:46.906Z,98374.31
2023-02-28T19:21:17.909Z,98369.25
2023-02-28T19:23:45.448Z,98377.28
2023-02-28T19:26:17.576Z,98379.19
2023-02-28T19:28:45.669Z,98367.69
2023-02-28T19:31:20.895Z,98375.72
2023-02-28T19:33:48.953Z,98372.09
2023-02-28T19:36:16.638Z,98380.25
2023-02-28T19:38:46.889Z,98373.28
2023-02-28T19:41:16.078Z,98382.38
2023-02-28T19:43:44.068Z,98370.25
2023-02-28T19:46:14.310Z,98378.06
2023-02-28T19:48:42.741Z,98375.53
2023-02-28T19:51:13.721Z,98373.72
2023-02-28T19:53:42.967Z,98373.00
2023-02-28T19:56:11.346Z,98376.72
2023-02-28T19:58:39.487Z,98372.38
2023-02-28T20:01:15.897Z,98376.09
2023-02-28T20:03:46.740Z,98374.38
2023-02-28T20:06:14.989Z,98377.03
2023-02-28T20:08:43.173Z,98374.00
2023-02-28T20:11:15.528Z,98373.16
2023-02-28T20:13:44.571Z,98372.53
2023-02-28T20:16:14.129Z,98368.34
2023-02-28T20:18:44.254Z,98371.19
2023-02-28T20:21:13.451Z,98369.63
2023-02-28T20:23:41.644Z,98367.06
2023-02-28T20:26:09.845Z,98362.00
2023-02-28T20:28:39.280Z,98362.09
2023-02-28T20:31:22.131Z,98368.47
2023-02-28T20:33:51.349Z,98365.09
2023-02-28T20:36:21.199Z,98371.44
2023-02-28T20:38:51.359Z,98372.47
2023-02-28T20:41:19.673Z,98368.38
2023-02-28T20:43:47.280Z,98369.44
2023-02-28T20:46:14.941Z,98374.19
2023-02-28T20:48:42.421Z,98368.16
2023-02-28T20:51:10.894Z,98363.88
2023-02-28T20:53:38.430Z,98373.69
2023-02-28T20:56:13.971Z,98363.44
2023-02-28T20:58:42.542Z,98363.78
2023-02-28T21:01:25.969Z,98367.56
2023-02-28T21:04:00.695Z,98368.59
2023-02-28T21:06:31.843Z,98375.78
2023-02-28T21:08:59.946Z,98375.28
2023-02-28T21:11:31.616Z,98380.03
2023-02-28T21:14:01.737Z,98375.72
2023-02-28T21:16:29.987Z,98377.81
2023-02-28T21:19:04.537Z,98370.09
2023-02-28T21:21:38.952Z,98376.44
2023-02-28T21:24:07.094Z,98370.31
2023-02-28T21:26:34.682Z,98366.09
2023-02-28T21:29:03.638Z,98361.88
2023-02-28T21:31:33.773Z,98361.13
2023-02-28T21:34:04.711Z,98362.41
2023-02-28T21:36:39.484Z,98352.28
2023-02-28T21:39:19.477Z,98366.50
2023-02-28T21:41:47.771Z,98356.16
2023-02-28T21:44:18.974Z,98358.06
2023-02-28T21:46:56.829Z,98359.88
2023-02-28T21:49:24.481Z,98363.34
2023-02-28T21:51:51.967Z,98364.41
2023-02-28T21:54:19.530Z,98364.69
2023-02-28T21:56:47.024Z,98371.94
2023-02-28T21:59:14.536Z,98356.38
2023-02-28T22:01:44.378Z,98365.34
2023-02-28T22:04:20.951Z,98362.88
2023-02-28T22:06:55.169Z,98365.06
2023-02-28T22:09:23.329Z,98364.31
2023-02-28T22:11:51.184Z,98358.31
2023-02-28T22:14:18.797Z,98360.13
2023-02-28T22:16:55.204Z,98363.59
2023-02-28T22:19:23.558Z,98360.34
2023-02-28T22:21:53.581Z,98353.69
2023-02-28T22:24:24.094Z,98358.41
2023-02-28T22:26:52.510Z,98361.22
2023-02-28T22:29:20.066Z,98364.81
2023-02-28T22:31:47.761Z,98363.09
2023-02-28T22:34:15.411Z,98362.38
2023-02-28T22:36:43.445Z,98369.44
2023-02-28T22:39:11.919Z,98363.34
2023-02-28T22:41:40.145Z,98368.69
2023-02-28T22:44:08.086Z,98357.50
2023-02-28T22:46:36.710Z,98358.56
2023-02-28T22:49:05.836Z,98364.84
2023-02-28T22:51:34.580Z,98365.72
2023-02-28T22:54:02.214Z,98359.59
2023-02-28T22:56:30.683Z,98355.19
2023-02-28T22:59:00.295Z,98355.19
2023-02-28T23:01:31.782Z,98357.91
2023-02-28T23:04:00.192Z,98357.91
2023-02-28T23:06:43.540Z,98358.09
2023-02-28T23:09:21.608Z,98351.06
2023-02-28T23:11:51.127Z,98356.44
2023-02-28T23:14:20.890Z,98352.97
2023-02-28T23:16:52.213Z,98354.06
2023-02-28T23:19:21.968Z,98354.94
2023-02-28T23:21:50.333Z,98355.88
2023-02-28T23:24:21.036Z,98356.19
2023-02-28T23:26:51.837Z,98359.00
2023-02-28T23:29:21.129Z,98363.44
2023-02-28T23:31:50.020Z,98362.59
2023-02-28T23:34:24.806Z,98362.59
2023-02-28T23:36:54.665Z,98358.25
2023-02-28T23:39:24.143Z,98348.03
2023-02-28T23:41:52.748Z,98356.75
2023-02-28T23:44:20.338Z,98359.47
2023-02-28T23:46:52.600Z,98356.09
2023-02-28T23:49:21.249Z,98355.38
2023-02-28T23:51:51.051Z,98356.50
2023-02-28T23:54:19.213Z,98348.78
2023-02-28T23:56:46.954Z,98350.50
2023-02-28T23:59:14.743Z,98356.59
